createdAt,value
2023-05-05T00:00:37.832Z,100929.50
2023-05-05T00:03:41.900Z,100926.44
2023-05-05T00:06:44.833Z,100929.28
2023-05-05T00:09:47.602Z,100926.72
2023-05-05T00:12:50.189Z,100925.09
2023-05-05T00:15:56.847Z,100929.66
2023-05-05T00:18:59.803Z,100930.72
2023-05-05T00:22:02.824Z,100930.94
2023-05-05T00:25:06.120Z,100913.38
2023-05-05T00:28:09.303Z,100915.44
2023-05-05T00:31:12.605Z,100917.00
2023-05-05T00:34:15.924Z,100924.16
2023-05-05T00:37:18.340Z,100921.34
2023-05-05T00:40:21.557Z,100924.41
2023-05-05T00:43:24.197Z,100921.66
2023-05-05T00:46:29.570Z,100932.06
2023-05-05T00:49:33.653Z,100918.81
2023-05-05T00:52:39.843Z,100921.78
2023-05-05T00:55:42.842Z,100913.31
2023-05-05T00:58:45.960Z,100922.31
2023-05-05T01:01:49.056Z,100907.22
2023-05-05T01:04:51.970Z,100910.28
2023-05-05T01:08:16.292Z,100900.31
2023-05-05T01:11:46.292Z,100913.06
2023-05-05T01:15:06.126Z,100900.41
2023-05-05T01:18:38.966Z,100891.53
2023-05-05T01:21:46.755Z,100895.56
2023-05-05T01:25:38.741Z,100896.50
2023-05-05T01:29:03.442Z,100898.50
2023-05-05T01:32:15.718Z,100899.34
2023-05-05T01:35:29.379Z,100889.09
2023-05-05T01:38:40.769Z,100888.16
2023-05-05T01:41:49.062Z,100892.41
2023-05-05T01:44:53.556Z,100893.28
2023-05-05T01:47:58.042Z,100901.56
2023-05-05T01:51:03.246Z,100894.16
2023-05-05T01:54:08.420Z,100894.63
2023-05-05T01:57:13.293Z,100888.78
2023-05-05T02:00:18.023Z,100894.91
2023-05-05T02:03:22.908Z,100878.16
2023-05-05T02:06:28.828Z,100885.97
2023-05-05T02:09:33.220Z,100882.81
2023-05-05T02:12:37.372Z,100885.03
2023-05-05T02:15:42.045Z,100880.09
2023-05-05T02:18:47.454Z,100883.69
2023-05-05T02:21:51.284Z,100887.78
2023-05-05T02:24:54.333Z,100882.16
2023-05-05T02:27:59.072Z,100873.75
2023-05-05T02:31:05.943Z,100879.22
2023-05-05T02:34:09.985Z,100884.81
2023-05-05T02:37:19.047Z,100863.94
2023-05-05T02:40:28.649Z,100880.81
2023-05-05T02:43:33.388Z,100892.13
2023-05-05T02:46:38.040Z,100876.75
2023-05-05T02:49:40.857Z,100884.25
2023-05-05T02:52:45.289Z,100882.38
2023-05-05T02:55:55.057Z,100884.16
2023-05-05T02:59:31.940Z,100886.31
2023-05-05T03:02:44.980Z,100882.47
2023-05-05T03:06:21.622Z,100883.94
2023-05-05T03:09:33.908Z,100895.75
2023-05-05T03:12:40.601Z,100903.72
2023-05-05T03:15:57.942Z,100897.34
2023-05-05T03:19:03.680Z,100893.22
2023-05-05T03:22:07.363Z,100890.25
2023-05-05T03:25:10.979Z,100885.38
2023-05-05T03:28:14.663Z,100895.13
2023-05-05T03:31:18.638Z,100890.94
2023-05-05T03:34:25.759Z,100889.84
2023-05-05T03:37:28.815Z,100898.19
2023-05-05T03:40:43.582Z,100897.56
2023-05-05T03:43:49.217Z,100893.69
2023-05-05T03:46:51.821Z,100892.31
2023-05-05T03:49:55.303Z,100896.81
2023-05-05T03:52:58.263Z,100900.78
2023-05-05T03:56:01.549Z,100904.03
2023-05-05T03:59:04.129Z,100905.81
2023-05-05T04:02:07.306Z,100915.53
2023-05-05T04:05:09.785Z,100913.66
2023-05-05T04:08:12.630Z,100916.84
2023-05-05T04:11:16.124Z,100921.28
2023-05-05T04:14:19.229Z,100927.09
2023-05-05T04:17:21.799Z,100928.03
2023-05-05T04:20:25.586Z,100934.97
2023-05-05T04:23:28.166Z,100938.84
2023-05-05T04:26:31.098Z,100944.66
2023-05-05T04:29:33.562Z,100931.03
2023-05-05T04:32:36.573Z,100938.44
2023-05-05T04:35:40.658Z,100933.28
2023-05-05T04:38:43.468Z,100929.31
2023-05-05T04:41:45.936Z,100939.25
2023-05-05T04:44:48.758Z,100939.53
2023-05-05T04:47:52.137Z,100943.16
2023-05-05T04:50:55.014Z,100944.75
2023-05-05T04:53:58.245Z,100949.09
2023-05-05T04:57:01.104Z,100949.66
2023-05-05T05:00:05.482Z,100954.28
2023-05-05T05:03:08.611Z,100952.03
2023-05-05T05:06:11.181Z,100955.19
2023-05-05T05:09:13.839Z,100957.00
2023-05-05T05:12:16.768Z,100957.56
2023-05-05T05:15:19.716Z,100963.28
2023-05-05T05:18:22.580Z,100954.59
2023-05-05T05:21:26.552Z,100959.94
2023-05-05T05:24:30.233Z,100955.00
2023-05-05T05:27:33.051Z,100957.50
2023-05-05T05:30:35.844Z,100963.47
2023-05-05T05:33:41.146Z,100963.66
2023-05-05T05:36:43.663Z,100964.25
2023-05-05T05:39:52.783Z,100967.94
2023-05-05T05:42:57.373Z,100962.44
2023-05-05T05:46:01.721Z,100976.84
2023-05-05T05:49:04.955Z,100972.97
2023-05-05T05:52:08.015Z,100975.97
2023-05-05T05:55:10.788Z,100967.28
2023-05-05T05:58:16.622Z,100965.41
2023-05-05T06:01:19.549Z,100966.53
2023-05-05T06:04:22.651Z,100969.00
2023-05-05T06:07:25.372Z,100966.88
2023-05-05T06:10:28.979Z,100971.44
2023-05-05T06:13:37.724Z,100971.50
2023-05-05T06:16:41.648Z,100970.53
2023-05-05T06:19:48.135Z,100980.56
2023-05-05T06:22:51.091Z,100973.44
2023-05-05T06:25:55.374Z,100967.16
2023-05-05T06:28:58.366Z,100964.03
2023-05-05T06:32:01.482Z,100977.44
2023-05-05T06:35:04.322Z,100967.56
2023-05-05T06:38:07.042Z,100964.38
2023-05-05T06:41:09.626Z,100970.06
2023-05-05T06:44:12.039Z,100972.72
2023-05-05T06:47:14.681Z,100969.00
2023-05-05T06:50:17.203Z,100967.06
2023-05-05T06:53:20.177Z,100962.59
2023-05-05T06:56:23.950Z,100965.78
2023-05-05T06:59:27.077Z,100973.41
2023-05-05T07:02:29.718Z,100959.41
2023-05-05T07:05:32.881Z,100964.69
2023-05-05T07:08:35.479Z,100966.19
2023-05-05T07:11:38.519Z,100966.78
2023-05-05T07:14:41.092Z,100955.72
2023-05-05T07:17:43.937Z,100962.50
2023-05-05T07:20:46.780Z,100967.22
2023-05-05T07:23:49.416Z,100964.28
2023-05-05T07:26:52.129Z,100969.56
2023-05-05T07:29:54.736Z,100959.34
2023-05-05T07:32:57.331Z,100968.22
2023-05-05T07:36:00.116Z,100963.00
2023-05-05T07:39:02.665Z,100956.69
2023-05-05T07:42:06.928Z,100962.91
2023-05-05T07:45:09.724Z,100963.50
2023-05-05T07:48:12.466Z,100957.00
2023-05-05T07:51:14.861Z,100956.53
2023-05-05T07:54:17.939Z,100959.53
2023-05-05T07:57:21.125Z,100954.31
2023-05-05T08:00:23.832Z,100955.03
2023-05-05T08:03:26.622Z,100944.97
2023-05-05T08:06:31.702Z,100947.72
2023-05-05T08:09:35.290Z,100949.28
2023-05-05T08:12:38.085Z,100954.00
2023-05-05T08:15:41.052Z,100948.84
2023-05-05T08:18:43.550Z,100946.94
2023-05-05T08:21:46.359Z,100953.53
2023-05-05T08:24:49.182Z,100953.84
2023-05-05T08:27:51.727Z,100949.69
2023-05-05T08:30:54.449Z,100955.31
2023-05-05T08:33:57.214Z,100958.59
2023-05-05T08:36:59.709Z,100957.56
2023-05-05T08:40:02.420Z,100945.19
2023-05-05T08:43:05.692Z,100952.72
2023-05-05T08:49:17.808Z,100954.91
2023-05-05T08:52:23.893Z,100943.91
2023-05-05T08:55:33.507Z,100943.75
2023-05-05T08:58:37.674Z,100942.47
2023-05-05T09:01:41.973Z,100932.72
2023-05-05T09:04:44.927Z,100927.22
2023-05-05T09:07:47.924Z,100928.75
2023-05-05T09:10:51.648Z,100916.53
2023-05-05T09:13:55.922Z,100914.97
2023-05-05T09:16:58.555Z,100919.28
2023-05-05T09:20:14.864Z,100916.34
2023-05-05T09:23:21.141Z,100913.59
2023-05-05T09:26:24.090Z,100915.66
2023-05-05T09:29:26.862Z,100915.47
2023-05-05T09:32:30.655Z,100915.16
2023-05-05T09:35:51.503Z,100909.50
2023-05-05T09:39:04.924Z,100916.56
2023-05-05T09:42:18.049Z,100908.63
2023-05-05T09:45:20.887Z,100908.09
2023-05-05T09:48:31.806Z,100905.53
2023-05-05T09:51:34.766Z,100899.69
2023-05-05T09:54:37.288Z,100902.03
2023-05-05T09:57:40.038Z,100891.63
2023-05-05T10:00:42.499Z,100899.28
2023-05-05T10:03:54.257Z,100890.16
2023-05-05T10:06:57.986Z,100894.25
2023-05-05T10:10:00.919Z,100890.72
2023-05-05T10:13:03.475Z,100896.59
2023-05-05T10:16:09.444Z,100888.38
2023-05-05T10:19:14.703Z,100885.31
2023-05-05T10:22:18.502Z,100882.28
2023-05-05T10:25:30.069Z,100874.56
2023-05-05T10:28:53.551Z,100881.81
2023-05-05T10:32:14.088Z,100875.16
2023-05-05T10:35:28.525Z,100862.34
2023-05-05T10:38:52.967Z,100869.25
2023-05-05T10:41:55.886Z,100861.75
2023-05-05T10:45:01.114Z,100856.09
2023-05-05T10:48:09.010Z,100852.47
2023-05-05T10:51:35.314Z,100840.75
2023-05-05T10:55:10.071Z,100842.34
2023-05-05T10:58:50.981Z,100843.75
2023-05-05T11:01:54.323Z,100835.78
2023-05-05T11:05:06.162Z,100826.59
2023-05-05T11:08:27.232Z,100823.28
2023-05-05T11:12:02.868Z,100823.25
2023-05-05T11:15:24.312Z,100810.66
2023-05-05T11:18:31.301Z,100816.63
2023-05-05T11:22:01.120Z,100806.88
2023-05-05T11:25:36.366Z,100796.78
2023-05-05T11:28:58.972Z,100798.63
2023-05-05T11:32:12.324Z,100791.88
2023-05-05T11:35:15.586Z,100788.94
2023-05-05T11:38:22.059Z,100789.63
2023-05-05T11:41:52.430Z,100790.06
2023-05-05T11:44:55.459Z,100787.81
2023-05-05T11:48:29.380Z,100780.41
2023-05-05T11:51:32.363Z,100779.94
2023-05-05T11:54:36.742Z,100770.94
2023-05-05T11:57:40.209Z,100772.00
2023-05-05T12:00:42.724Z,100765.25
2023-05-05T12:03:46.086Z,100769.22
2023-05-05T12:06:51.483Z,100759.53
2023-05-05T12:09:55.099Z,100759.66
2023-05-05T12:12:58.185Z,100764.84
2023-05-05T12:16:11.324Z,100762.88
2023-05-05T12:19:14.447Z,100751.56
2023-05-05T12:22:25.619Z,100751.03
2023-05-05T12:25:36.347Z,100753.69
2023-05-05T12:28:48.643Z,100747.00
2023-05-05T12:31:51.740Z,100745.81
2023-05-05T12:34:57.546Z,100747.47
2023-05-05T12:38:00.316Z,100735.97
2023-05-05T12:41:03.075Z,100736.53
2023-05-05T12:44:06.711Z,100736.84
2023-05-05T12:47:09.723Z,100723.00
2023-05-05T12:50:12.455Z,100730.22
2023-05-05T12:53:25.742Z,100730.28
2023-05-05T12:56:44.569Z,100723.63
2023-05-05T12:59:47.060Z,100713.81
2023-05-05T13:02:50.024Z,100718.81
2023-05-05T13:05:52.738Z,100710.38
2023-05-05T13:08:56.758Z,100703.47
2023-05-05T13:11:59.572Z,100695.75
2023-05-05T13:15:02.140Z,100701.50
2023-05-05T13:18:04.891Z,100699.25
2023-05-05T13:21:10.248Z,100694.50
2023-05-05T13:24:25.993Z,100690.47
2023-05-05T13:27:34.555Z,100679.00
2023-05-05T13:30:37.145Z,100689.59
2023-05-05T13:33:40.079Z,100685.44
2023-05-05T13:36:42.774Z,100685.31
2023-05-05T13:39:45.376Z,100684.50
2023-05-05T13:42:48.162Z,100684.03
2023-05-05T13:45:50.969Z,100678.38
2023-05-05T13:48:56.720Z,100682.72
2023-05-05T13:51:59.538Z,100671.88
2023-05-05T13:55:02.060Z,100675.03
2023-05-05T13:58:04.794Z,100671.00
2023-05-05T14:01:07.936Z,100675.41
2023-05-05T14:04:10.592Z,100667.44
2023-05-05T14:07:13.149Z,100664.56
2023-05-05T14:10:16.331Z,100662.28
2023-05-05T14:13:19.241Z,100666.00
2023-05-05T14:16:22.002Z,100660.13
2023-05-05T14:19:24.973Z,100655.19
2023-05-05T14:22:27.652Z,100656.78
2023-05-05T14:25:30.835Z,100655.19
2023-05-05T14:28:33.496Z,100651.34
2023-05-05T14:31:37.032Z,100649.03
2023-05-05T14:34:39.796Z,100646.31
2023-05-05T14:37:42.434Z,100647.13
2023-05-05T14:40:45.059Z,100647.47
2023-05-05T14:43:47.992Z,100645.19
2023-05-05T14:46:51.287Z,100640.84
2023-05-05T14:49:53.981Z,100640.75
2023-05-05T14:52:56.817Z,100643.41
2023-05-05T14:56:01.064Z,100651.00
2023-05-05T14:59:03.621Z,100643.13
2023-05-05T15:02:06.813Z,100648.44
2023-05-05T15:05:10.392Z,100644.00
2023-05-05T15:08:14.789Z,100648.97
2023-05-05T15:11:17.476Z,100645.91
2023-05-05T15:14:20.342Z,100642.06
2023-05-05T15:17:23.145Z,100640.91
2023-05-05T15:20:25.930Z,100638.50
2023-05-05T15:23:28.565Z,100635.75
2023-05-05T15:26:31.508Z,100636.53
2023-05-05T15:29:34.241Z,100637.66
2023-05-05T15:32:37.296Z,100638.19
2023-05-05T15:35:40.121Z,100643.13
2023-05-05T15:38:43.626Z,100642.66
2023-05-05T15:41:46.316Z,100644.28
2023-05-05T15:44:49.343Z,100645.84
2023-05-05T15:47:52.903Z,100639.63
2023-05-05T15:50:55.648Z,100641.09
2023-05-05T15:53:58.089Z,100636.50
2023-05-05T15:57:00.816Z,100632.69
2023-05-05T16:00:08.906Z,100628.69
2023-05-05T16:03:38.963Z,100626.38
2023-05-05T16:06:44.401Z,100617.84
2023-05-05T16:09:46.943Z,100616.97
2023-05-05T16:12:49.660Z,100619.03
2023-05-05T16:15:52.353Z,100618.91
2023-05-05T16:18:54.977Z,100617.38
2023-05-05T16:21:58.049Z,100615.78
2023-05-05T16:25:00.578Z,100616.50
2023-05-05T16:28:03.490Z,100614.75
2023-05-05T16:31:05.981Z,100615.81
2023-05-05T16:34:08.758Z,100612.09
2023-05-05T16:37:12.731Z,100609.31
2023-05-05T16:40:15.730Z,100619.31
2023-05-05T16:43:19.620Z,100613.28
2023-05-05T16:46:22.301Z,100613.53
2023-05-05T16:49:25.112Z,100616.50
2023-05-05T16:52:28.061Z,100612.91
2023-05-05T16:55:30.503Z,100616.53
2023-05-05T16:58:33.222Z,100614.97
2023-05-05T17:01:35.636Z,100618.09
2023-05-05T17:04:38.830Z,100623.94
2023-05-05T17:07:41.506Z,100614.44
2023-05-05T17:10:45.874Z,100611.47
2023-05-05T17:13:48.530Z,100623.59
2023-05-05T17:16:51.407Z,100620.81
2023-05-05T17:19:53.992Z,100624.94
2023-05-05T17:22:56.654Z,100633.91
2023-05-05T17:25:59.473Z,100635.53
2023-05-05T17:29:02.873Z,100620.78
2023-05-05T17:32:06.178Z,100624.78
2023-05-05T17:35:09.855Z,100626.28
2023-05-05T17:38:13.175Z,100629.94
2023-05-05T17:41:16.042Z,100623.53
2023-05-05T17:44:18.796Z,100633.19
2023-05-05T17:47:22.634Z,100628.97
2023-05-05T17:50:25.451Z,100634.75
2023-05-05T17:53:28.233Z,100639.31
2023-05-05T17:56:30.657Z,100640.78
2023-05-05T17:59:33.286Z,100633.28
2023-05-05T18:02:37.172Z,100635.78
2023-05-05T18:05:40.259Z,100638.13
2023-05-05T18:08:43.469Z,100650.59
2023-05-05T18:11:46.086Z,100642.53
2023-05-05T18:14:48.713Z,100641.91
2023-05-05T18:17:51.298Z,100648.34
2023-05-05T18:20:54.125Z,100654.75
2023-05-05T18:24:01.907Z,100656.16
2023-05-05T18:27:10.402Z,100651.03
2023-05-05T18:30:13.674Z,100655.72
2023-05-05T18:33:16.151Z,100654.16
2023-05-05T18:36:18.868Z,100655.47
2023-05-05T18:39:21.688Z,100651.81
2023-05-05T18:42:24.268Z,100644.69
2023-05-05T18:45:26.963Z,100653.47
2023-05-05T18:48:30.912Z,100659.03
2023-05-05T18:51:33.554Z,100657.22
2023-05-05T18:54:37.798Z,100661.19
2023-05-05T18:57:40.558Z,100668.88
2023-05-05T19:00:43.548Z,100661.59
2023-05-05T19:03:48.071Z,100660.84
2023-05-05T19:06:52.537Z,100661.53
2023-05-05T19:09:55.516Z,100668.09
2023-05-05T19:12:59.231Z,100671.09
2023-05-05T19:16:02.128Z,100671.69
2023-05-05T19:19:04.962Z,100667.22
2023-05-05T19:22:07.752Z,100664.59
2023-05-05T19:25:11.167Z,100660.53
2023-05-05T19:28:13.909Z,100667.69
2023-05-05T19:31:16.909Z,100672.00
2023-05-05T19:34:19.781Z,100659.50
2023-05-05T19:37:23.090Z,100659.50
2023-05-05T19:40:26.182Z,100668.09
2023-05-05T19:43:28.910Z,100666.69
2023-05-05T19:46:31.954Z,100664.53
2023-05-05T19:49:34.938Z,100663.63
2023-05-05T19:52:38.485Z,100660.63
2023-05-05T19:55:41.417Z,100668.78
2023-05-05T19:59:01.444Z,100667.19
2023-05-05T20:02:04.406Z,100666.31
2023-05-05T20:05:07.166Z,100663.13
2023-05-05T20:08:09.918Z,100665.84
2023-05-05T20:11:14.464Z,100660.91
2023-05-05T20:14:17.179Z,100658.41
2023-05-05T20:17:21.463Z,100659.03
2023-05-05T20:20:24.187Z,100655.25
2023-05-05T20:23:27.227Z,100648.44
2023-05-05T20:26:30.911Z,100648.00
2023-05-05T20:29:33.483Z,100660.88
2023-05-05T20:32:36.842Z,100655.38
2023-05-05T20:35:39.380Z,100657.28
2023-05-05T20:38:43.337Z,100656.28
2023-05-05T20:41:46.918Z,100656.66
2023-05-05T20:44:49.761Z,100655.56
2023-05-05T20:47:52.461Z,100655.69
2023-05-05T20:50:55.710Z,100655.88
2023-05-05T20:54:00.426Z,100648.75
2023-05-05T20:57:03.297Z,100647.88
2023-05-05T21:00:06.655Z,100645.16
2023-05-05T21:03:09.817Z,100636.44
2023-05-05T21:06:12.440Z,100642.81
2023-05-05T21:09:15.261Z,100642.28
2023-05-05T21:12:17.779Z,100637.25
2023-05-05T21:15:20.516Z,100640.63
2023-05-05T21:18:25.780Z,100637.38
2023-05-05T21:21:28.364Z,100642.09
2023-05-05T21:24:31.158Z,100642.41
2023-05-05T21:27:33.821Z,100639.53
2023-05-05T21:30:36.325Z,100636.09
2023-05-05T21:33:39.518Z,100638.19
2023-05-05T21:36:41.870Z,100642.47
2023-05-05T21:39:44.960Z,100648.38
2023-05-05T21:42:47.677Z,100644.47
2023-05-05T21:46:01.995Z,100637.66
2023-05-05T21:49:13.778Z,100643.13
2023-05-05T21:52:17.327Z,100641.72
2023-05-05T21:55:19.932Z,100644.22
2023-05-05T21:58:25.317Z,100636.25
2023-05-05T22:01:28.055Z,100641.00
2023-05-05T22:04:31.103Z,100644.94
2023-05-05T22:07:33.560Z,100633.00
2023-05-05T22:10:36.296Z,100635.34
2023-05-05T22:13:39.316Z,100638.81
2023-05-05T22:16:41.860Z,100640.88
2023-05-05T22:19:44.580Z,100631.13
2023-05-05T22:22:47.729Z,100632.22
2023-05-05T22:25:50.479Z,100632.53
2023-05-05T22:28:53.209Z,100614.63
2023-05-05T22:31:55.838Z,100619.66
2023-05-05T22:34:59.196Z,100623.91
2023-05-05T22:38:01.764Z,100625.00
2023-05-05T22:41:06.759Z,100630.97
2023-05-05T22:44:09.463Z,100634.44
2023-05-05T22:47:13.513Z,100627.69
2023-05-05T22:50:16.166Z,100626.25
2023-05-05T22:53:18.964Z,100626.09
2023-05-05T22:56:21.739Z,100630.50
2023-05-05T22:59:25.416Z,100637.75
2023-05-05T23:02:28.396Z,100635.53
2023-05-05T23:05:31.522Z,100636.63
2023-05-05T23:08:33.957Z,100635.53
2023-05-05T23:11:37.019Z,100639.78
2023-05-05T23:14:39.940Z,100638.06
2023-05-05T23:17:42.793Z,100643.72
2023-05-05T23:20:45.511Z,100648.25
2023-05-05T23:23:48.775Z,100644.00
2023-05-05T23:26:52.074Z,100644.00
2023-05-05T23:29:54.775Z,100642.66
2023-05-05T23:32:58.054Z,100640.63
2023-05-05T23:36:01.213Z,100645.34
2023-05-05T23:39:03.804Z,100638.25
2023-05-05T23:42:07.088Z,100638.38
2023-05-05T23:45:10.456Z,100647.59
2023-05-05T23:48:13.602Z,100650.63
2023-05-05T23:51:16.566Z,100646.78
2023-05-05T23:54:19.381Z,100654.34
2023-05-05T23:57:22.288Z,100643.50
